Time;durP1;ratioP1;P1;durP2;ratioP2;P2;SDS_P1;SDS_P2;PMS_P1;PMS_P2;Temp;Humidity;BMP_temperature;BMP_pressure;BME280_temperature;BME280_humidity;BME280_pressure;Samples;Min_cycle;Max_cycle;Signal;HPM_P1;HPM_P2
2023/12/22 00:02:04;;;;;;;0.40;0.40;;;6.90;99.90;;;6.99;90.66;99297.41;4869109;28;25320;-68
2023/12/22 00:04:26;;;;;;;0.30;0.30;;;6.90;99.90;;;7.03;91.09;99293.63;4868377;28;20791;-66
2023/12/22 00:06:48;;;;;;;0.40;0.40;;;6.90;99.90;;;7.07;91.64;99284.66;4870981;28;24443;-65
2023/12/22 00:09:10;;;;;;;0.40;0.40;;;6.90;99.90;;;7.13;90.31;99279.00;4875135;28;24832;-67
2023/12/22 00:11:32;;;;;;;0.40;0.40;;;6.90;99.90;;;7.13;90.29;99304.94;4875470;28;24427;-66
2023/12/22 00:13:54;;;;;;;0.30;0.30;;;7.00;99.90;;;7.12;90.32;99354.31;4868526;28;25016;-66
2023/12/22 00:16:16;;;;;;;0.30;0.30;;;7.00;99.90;;;7.18;90.80;99302.78;4877175;28;25038;-66
2023/12/22 00:18:38;;;;;;;0.30;0.30;;;7.00;99.90;;;7.19;90.78;99290.66;4865451;28;20792;-65
2023/12/22 00:21:00;;;;;;;0.30;0.30;;;7.00;99.90;;;7.17;91.73;99328.84;4860769;28;24424;-66
2023/12/22 00:23:22;;;;;;;0.30;0.30;;;7.00;99.90;;;7.19;90.85;99317.41;4875693;28;24523;-65
2023/12/22 00:25:44;;;;;;;0.30;0.30;;;7.10;99.90;;;7.11;91.04;99322.41;4873568;28;24489;-67
2023/12/22 00:28:06;;;;;;;0.30;0.30;;;7.00;99.90;;;7.06;92.63;99321.91;4867272;28;24479;-66
2023/12/22 00:30:28;;;;;;;0.30;0.30;;;7.00;99.90;;;7.10;92.15;99333.69;4864067;28;25090;-66
2023/12/22 00:32:50;;;;;;;0.30;0.30;;;7.00;99.90;;;7.11;92.64;99337.94;4869908;28;24493;-67
2023/12/22 00:35:12;;;;;;;0.40;0.40;;;7.00;99.90;;;7.02;94.09;99333.47;4858171;28;24853;-66
2023/12/22 00:37:34;;;;;;;0.30;0.30;;;7.00;99.90;;;7.04;94.48;99334.19;4868988;28;24431;-66
2023/12/22 00:39:56;;;;;;;0.40;0.40;;;6.90;99.90;;;7.08;94.74;99330.41;4864000;28;24459;-65
2023/12/22 00:42:19;;;;;;;0.90;0.40;;;7.00;99.90;;;7.09;94.67;99326.03;4859472;28;24427;-67
2023/12/22 00:44:41;;;;;;;0.50;0.38;;;6.90;99.90;;;7.14;94.35;99301.38;4860227;28;24439;-66
2023/12/22 00:47:02;;;;;;;0.30;0.30;;;7.00;99.90;;;6.97;94.04;99304.47;4865351;28;25008;-67
2023/12/22 00:49:24;;;;;;;0.37;0.37;;;6.90;99.90;;;6.99;94.53;99295.63;4870484;28;24595;-68
2023/12/22 00:51:46;;;;;;;0.90;0.50;;;6.90;99.90;;;7.00;95.28;99305.06;4875411;28;24434;-67
2023/12/22 00:54:08;;;;;;;0.40;0.30;;;6.90;99.90;;;7.05;95.33;99317.66;4867224;28;24474;-69
2023/12/22 00:56:30;;;;;;;0.40;0.40;;;6.90;99.90;;;7.11;95.64;99301.66;4875076;28;24427;-64
2023/12/22 00:58:53;;;;;;;0.45;0.30;;;6.90;99.90;;;7.15;95.05;99292.66;4875476;28;24848;-66
2023/12/22 01:01:26;;;;;;;1.30;0.30;;;7.00;99.90;;;7.00;94.56;99276.56;4866402;28;25054;-66
2023/12/22 01:03:47;;;;;;;0.30;0.30;;;7.00;99.90;;;6.92;94.87;99296.25;4867152;28;24450;-67
2023/12/22 01:06:09;;;;;;;0.35;0.35;;;6.90;99.90;;;6.83;96.22;99309.91;4861577;28;25537;-67
2023/12/22 01:08:31;;;;;;;0.30;0.30;;;6.80;99.90;;;6.84;96.96;99320.16;4862625;28;24446;-67
2023/12/22 01:10:53;;;;;;;0.60;0.40;;;6.70;99.90;;;6.79;97.52;99305.91;4870688;28;24522;-67
2023/12/22 01:13:15;;;;;;;0.40;0.40;;;6.70;99.90;;;6.68;96.57;99290.34;4872483;28;24435;-71
2023/12/22 01:15:37;;;;;;;0.40;0.40;;;6.70;99.90;;;6.62;96.96;99278.69;4867595;28;24505;-67
2023/12/22 01:17:59;;;;;;;0.60;0.40;;;6.60;99.90;;;6.65;97.19;99281.03;4872983;28;24517;-65
2023/12/22 01:20:21;;;;;;;1.50;0.50;;;6.50;99.90;;;6.70;97.52;99293.66;4864801;28;24542;-66
2023/12/22 01:22:43;;;;;;;1.40;0.50;;;6.60;99.90;;;6.75;98.32;99286.34;4866519;28;24539;-66
2023/12/22 01:25:06;;;;;;;0.70;0.70;;;6.60;99.90;;;6.84;98.20;99283.03;4859024;28;24439;-65
2023/12/22 01:27:27;;;;;;;0.40;0.40;;;6.60;99.90;;;6.92;98.14;99276.31;4864662;28;24511;-66
2023/12/22 01:29:49;;;;;;;0.50;0.47;;;6.70;99.90;;;6.94;96.78;99278.81;4867327;28;24600;-66
2023/12/22 01:32:11;;;;;;;2.20;0.50;;;6.80;99.90;;;6.99;96.69;99281.84;4873527;28;24489;-66
2023/12/22 01:34:33;;;;;;;0.80;0.50;;;6.80;99.90;;;7.03;97.46;99278.06;4865174;28;24535;-67
2023/12/22 01:36:55;;;;;;;1.80;0.73;;;6.90;99.90;;;7.07;97.12;99275.09;4873975;28;25354;-69
2023/12/22 01:39:17;;;;;;;0.90;0.60;;;6.90;99.90;;;7.15;97.18;99302.22;4868417;28;24459;-66
2023/12/22 01:41:42;;;;;;;1.37;0.60;;;7.00;99.90;;;7.24;97.25;99309.28;4850376;28;25297;-66
2023/12/22 01:44:04;;;;;;;0.60;0.60;;;7.10;99.90;;;7.30;97.67;99307.03;4870016;28;24435;-66
2023/12/22 01:46:26;;;;;;;1.40;0.60;;;7.10;99.90;;;7.37;97.59;99304.78;4871444;28;24562;-67
2023/12/22 01:48:48;;;;;;;0.70;0.70;;;7.10;99.90;;;7.46;96.58;99317.00;4875092;28;24431;-67
2023/12/22 01:51:10;;;;;;;1.10;0.70;;;7.20;99.90;;;7.55;97.13;99306.72;4845090;28;24519;-66
2023/12/22 01:53:32;;;;;;;3.42;0.70;;;7.30;99.90;;;7.70;96.01;99335.81;4871925;28;24431;-68
2023/12/22 01:56:00;;;;;;;0.90;0.70;;;7.40;99.90;;;7.96;93.12;99323.31;4862737;28;25143;-66
2023/12/22 01:58:26;;;;;;;0.70;0.70;;;7.70;99.90;;;8.18;87.97;99328.38;4848718;28;24432;-68
2023/12/22 02:00:48;;;;;;;1.60;0.50;;;8.00;99.90;;;8.48;86.61;99333.66;4865477;28;24459;-67
2023/12/22 02:03:11;;;;;;;1.10;0.60;;;8.30;99.90;;;8.70;85.41;99328.31;4870756;28;24450;-68
2023/12/22 02:05:32;;;;;;;2.28;0.80;;;8.50;99.90;;;8.81;84.97;99324.81;4870642;28;24439;-67
2023/12/22 02:07:55;;;;;;;2.00;0.80;;;8.60;99.90;;;8.82;83.59;99329.88;4869438;28;24423;-67
2023/12/22 02:10:17;;;;;;;1.27;0.95;;;8.60;99.90;;;8.93;83.84;99329.78;4865480;28;24508;-68
2023/12/22 02:12:39;;;;;;;1.00;0.90;;;8.70;99.90;;;8.90;84.08;99335.22;4873046;28;25190;-67
2023/12/22 02:15:01;;;;;;;0.90;0.70;;;8.70;99.90;;;8.96;83.35;99352.94;4864311;28;24467;-67
2023/12/22 02:18:19;;;;;;;1.02;0.70;;;8.80;99.90;;;9.04;83.02;99327.09;4864019;28;25041;-66
2023/12/22 02:20:43;;;;;;;2.88;1.17;;;8.90;99.90;;;8.96;84.13;99332.13;4872549;28;24817;-67
2023/12/22 02:23:05;;;;;;;1.10;0.90;;;8.90;99.90;;;9.00;84.86;99343.91;4874563;28;24431;-66
2023/12/22 02:25:27;;;;;;;1.90;0.90;;;8.80;99.90;;;9.01;84.64;99340.34;4856445;28;25044;-67
2023/12/22 02:27:54;;;;;;;0.90;0.60;;;8.80;99.90;;;9.05;83.74;99333.91;4869631;28;24987;-66
2023/12/22 02:30:33;;;;;;;0.95;0.60;;;8.90;99.90;;;8.98;84.27;99327.63;4862717;28;24518;-67
2023/12/22 02:33:00;;;;;;;0.90;0.60;;;8.80;99.90;;;8.91;84.54;99313.47;4853070;28;24531;-67
2023/12/22 02:35:26;;;;;;;1.83;0.68;;;8.80;99.90;;;8.91;85.06;99320.44;4839617;28;25271;-68
2023/12/22 02:37:49;;;;;;;0.90;0.77;;;8.80;99.90;;;8.88;86.08;99331.94;4869458;28;24459;-67
2023/12/22 02:40:12;;;;;;;2.40;0.70;;;8.70;99.90;;;8.91;86.62;99325.66;4839037;28;24842;-67
2023/12/22 02:42:36;;;;;;;2.40;0.60;;;8.80;99.90;;;8.82;86.38;99327.25;4872789;28;24427;-67
2023/12/22 02:44:58;;;;;;;2.13;0.70;;;8.70;99.90;;;8.71;87.44;99327.34;4844858;28;24663;-68
2023/12/22 02:47:20;;;;;;;0.68;0.68;;;8.60;99.90;;;8.67;87.96;99333.75;4871846;28;24879;-66
2023/12/22 02:49:42;;;;;;;2.83;0.88;;;8.60;99.90;;;8.63;88.53;99337.56;4870035;28;20778;-66
2023/12/22 02:52:05;;;;;;;3.42;0.80;;;8.50;99.90;;;8.66;88.00;99352.09;4872534;28;24514;-67
2023/12/22 02:54:29;;;;;;;1.30;0.90;;;8.50;99.90;;;8.68;88.48;99364.03;4870350;28;24515;-71
2023/12/22 02:56:51;;;;;;;3.60;1.02;;;8.50;99.90;;;8.69;88.66;99357.06;4859474;28;24814;-67
2023/12/22 02:59:13;;;;;;;1.00;0.90;;;8.50;99.90;;;8.75;89.03;99367.75;4868841;28;24470;-68
2023/12/22 03:01:35;;;;;;;1.10;0.90;;;8.50;99.90;;;8.74;89.24;99379.09;4871326;28;24869;-67
2023/12/22 03:03:57;;;;;;;2.28;1.00;;;8.60;99.90;;;8.65;89.41;99372.06;4861139;28;24539;-66
2023/12/22 03:06:19;;;;;;;3.22;0.70;;;8.50;99.90;;;8.65;89.79;99366.03;4872923;28;24431;-66
2023/12/22 03:08:41;;;;;;;3.60;0.70;;;8.50;99.90;;;8.61;89.42;99344.69;4868868;28;24419;-68
2023/12/22 03:11:03;;;;;;;0.65;0.65;;;8.40;99.90;;;8.62;90.04;99354.13;4857943;28;24540;-67
2023/12/22 03:13:25;;;;;;;2.75;0.90;;;8.50;99.90;;;8.60;89.10;99346.44;4866544;28;24493;-68
2023/12/22 03:15:47;;;;;;;1.40;0.90;;;8.50;99.90;;;8.65;89.31;99340.03;4869037;28;24474;-67
2023/12/22 03:18:09;;;;;;;1.05;0.95;;;8.50;99.90;;;8.62;89.48;99341.16;4865473;28;24475;-66
2023/12/22 03:20:32;;;;;;;2.17;0.90;;;8.50;99.90;;;8.64;89.65;99341.84;4876095;28;24586;-67
2023/12/22 03:22:54;;;;;;;1.80;0.80;;;8.50;99.90;;;8.68;88.88;99339.78;4864881;28;24483;-67
2023/12/22 03:25:16;;;;;;;1.48;0.82;;;8.50;99.90;;;8.69;88.67;99336.25;4865628;28;24428;-67
2023/12/22 03:27:38;;;;;;;0.90;0.75;;;8.50;99.90;;;8.71;88.43;99342.16;4867016;28;24486;-66
2023/12/22 03:30:01;;;;;;;1.40;0.80;;;8.50;99.90;;;8.70;88.25;99349.13;4853760;28;24454;-67
2023/12/22 03:32:23;;;;;;;0.95;0.57;;;8.50;99.90;;;8.78;85.40;99346.69;4843791;28;24438;-71
2023/12/22 03:34:45;;;;;;;0.70;0.70;;;8.60;99.90;;;8.84;84.90;99340.97;4871479;28;24477;-67
2023/12/22 03:37:07;;;;;;;1.80;0.70;;;8.70;99.90;;;8.87;83.79;99327.69;4874655;28;24535;-67
2023/12/22 03:39:29;;;;;;;4.60;0.80;;;8.70;99.90;;;9.01;83.26;99314.31;4873698;28;24437;-67
2023/12/22 03:41:51;;;;;;;2.00;0.80;;;8.80;99.90;;;9.12;82.43;99314.22;4861500;28;24510;-67
2023/12/22 03:44:13;;;;;;;0.70;0.60;;;8.90;99.90;;;9.20;81.21;99324.78;4863457;28;25156;-67
2023/12/22 03:46:35;;;;;;;2.10;0.90;;;9.00;99.90;;;9.28;80.78;99324.94;4869257;28;24816;-68
2023/12/22 03:48:57;;;;;;;2.60;0.80;;;9.10;99.90;;;9.37;79.17;99305.09;4873753;28;24545;-66
2023/12/22 03:51:19;;;;;;;0.70;0.70;;;9.20;99.90;;;9.45;78.01;99314.84;4876251;28;25129;-67
2023/12/22 03:53:41;;;;;;;2.00;0.80;;;9.30;99.90;;;9.50;78.16;99321.28;4871436;28;24523;-67
2023/12/22 03:56:03;;;;;;;1.17;0.80;;;9.30;99.90;;;9.45;77.26;99323.50;4871024;28;24450;-67
2023/12/22 03:58:26;;;;;;;3.30;0.63;;;9.30;99.90;;;9.52;76.90;99319.38;4870416;28;24526;-67
2023/12/22 04:00:48;;;;;;;1.80;1.10;;;9.40;99.90;;;9.62;76.77;99312.41;4872213;28;24451;-67
2023/12/22 04:03:10;;;;;;;1.42;0.70;;;9.40;99.90;;;9.62;74.73;99317.63;4875418;28;24489;-68
2023/12/22 04:05:32;;;;;;;2.00;0.50;;;9.50;99.90;;;9.66;73.57;99311.19;4870809;28;24435;-68
2023/12/22 04:07:54;;;;;;;1.80;0.75;;;9.50;99.90;;;9.75;73.88;99306.94;4866046;28;24806;-67
2023/12/22 04:10:18;;;;;;;3.60;0.60;;;9.60;99.90;;;9.83;72.36;99301.84;4872818;28;24821;-67
2023/12/22 04:12:40;;;;;;;2.00;0.90;;;9.60;99.90;;;9.87;72.17;99317.06;4876573;28;24869;-67
2023/12/22 04:15:03;;;;;;;0.90;0.70;;;9.70;99.90;;;9.92;72.35;99330.50;4868753;28;24539;-68
2023/12/22 04:17:25;;;;;;;2.10;0.60;;;9.70;99.90;;;9.96;72.42;99336.28;4873014;28;24427;-67
2023/12/22 04:19:47;;;;;;;1.80;0.50;;;9.80;99.90;;;9.88;72.09;99334.34;4872214;28;24430;-67
2023/12/22 04:22:09;;;;;;;2.30;0.60;;;9.70;99.90;;;9.94;72.00;99362.47;4875709;28;24424;-67
2023/12/22 04:24:31;;;;;;;1.90;0.90;;;9.70;99.90;;;9.84;73.40;99397.25;4861795;28;24861;-66
2023/12/22 04:26:52;;;;;;;1.70;0.90;;;9.70;99.90;;;9.80;75.28;99395.88;4861314;28;25056;-67
2023/12/22 04:29:15;;;;;;;1.50;1.10;;;9.60;99.90;;;9.69;79.01;99401.25;4866456;28;24513;-68
2023/12/22 04:31:37;;;;;;;2.30;1.00;;;9.50;99.90;;;9.54;80.49;99397.38;4873630;28;24437;-67
2023/12/22 04:33:59;;;;;;;1.40;0.90;;;9.40;99.90;;;9.26;81.05;99407.53;4868550;28;24443;-67
2023/12/22 04:36:21;;;;;;;2.53;1.10;;;9.20;99.90;;;9.19;82.67;99388.22;4874120;28;24514;-66
2023/12/22 04:38:43;;;;;;;1.17;1.00;;;9.10;99.90;;;9.11;83.05;99401.06;4867680;28;24440;-67
2023/12/22 04:41:05;;;;;;;1.60;0.80;;;8.90;99.90;;;9.15;83.25;99412.03;4872669;28;24462;-67
2023/12/22 04:43:27;;;;;;;1.92;0.90;;;8.90;99.90;;;9.13;83.19;99408.72;4857272;28;24482;-67
2023/12/22 04:45:49;;;;;;;1.50;0.70;;;8.90;99.90;;;9.10;83.28;99415.00;4860451;28;24444;-67
2023/12/22 04:48:11;;;;;;;3.92;0.90;;;8.90;99.90;;;9.13;82.92;99400.94;4865360;28;24423;-68
2023/12/22 04:50:33;;;;;;;1.50;0.80;;;8.90;99.90;;;9.10;83.32;99409.81;4873061;28;24481;-68
2023/12/22 04:52:55;;;;;;;0.60;0.60;;;8.90;99.90;;;9.08;82.02;99406.53;4868430;28;24546;-68
2023/12/22 04:55:17;;;;;;;0.80;0.50;;;8.90;99.90;;;9.14;80.97;99398.19;4858185;28;24512;-68
2023/12/22 04:57:39;;;;;;;0.50;0.50;;;9.00;99.90;;;9.22;80.24;99418.38;4869816;28;24462;-67
2023/12/22 05:00:02;;;;;;;0.70;0.40;;;9.10;99.90;;;9.23;80.70;99413.03;4874595;28;24427;-67
2023/12/22 05:02:23;;;;;;;1.17;0.50;;;9.10;99.90;;;9.22;82.14;99421.78;4857605;28;24493;-66
2023/12/22 05:04:45;;;;;;;0.60;0.60;;;9.10;99.90;;;9.15;84.70;99427.63;4863554;28;24433;-67
2023/12/22 05:07:07;;;;;;;0.90;0.60;;;9.00;99.90;;;9.04;86.12;99414.72;4865295;28;24777;-67
2023/12/22 05:09:29;;;;;;;1.00;0.60;;;8.90;99.90;;;8.87;87.66;99425.72;4864728;28;24450;-67
2023/12/22 05:11:51;;;;;;;0.50;0.50;;;8.80;99.90;;;8.73;88.78;99419.03;4869602;28;24467;-69
2023/12/22 05:14:13;;;;;;;0.80;0.60;;;8.70;99.90;;;8.71;88.77;99417.56;4873647;28;24459;-68
2023/12/22 05:16:35;;;;;;;3.40;0.60;;;8.60;99.90;;;8.66;89.54;99420.53;4864856;28;24444;-69
2023/12/22 05:18:58;;;;;;;0.60;0.60;;;8.50;99.90;;;8.65;89.44;99412.84;4864065;28;24492;-70
2023/12/22 05:21:21;;;;;;;0.88;0.70;;;8.50;99.90;;;8.65;90.04;99408.47;4854342;28;24869;-66
2023/12/22 05:23:43;;;;;;;0.60;0.60;;;8.50;99.90;;;8.69;89.64;99414.25;4869590;28;24447;-67
2023/12/22 05:26:05;;;;;;;1.33;0.70;;;8.50;99.90;;;8.70;88.95;99421.91;4875342;28;25036;-67
2023/12/22 05:28:27;;;;;;;1.85;0.80;;;8.50;99.90;;;8.72;89.29;99413.97;4863709;28;25101;-69
2023/12/22 05:30:49;;;;;;;1.50;0.80;;;8.50;99.90;;;8.74;88.67;99438.91;4858387;28;24463;-67
2023/12/22 05:33:11;;;;;;;3.38;0.90;;;8.60;99.90;;;8.77;88.04;99440.44;4869708;28;24523;-67
2023/12/22 05:35:32;;;;;;;1.45;0.70;;;8.60;99.90;;;8.83;87.92;99450.31;4864634;28;24448;-67
2023/12/22 05:37:57;;;;;;;1.05;0.90;;;8.70;99.90;;;8.86;87.40;99443.09;4866780;28;24473;-68
2023/12/22 05:40:19;;;;;;;1.75;0.70;;;8.70;99.90;;;8.90;87.38;99452.28;4865161;28;24485;-68
2023/12/22 05:42:40;;;;;;;1.50;0.60;;;8.70;99.90;;;8.94;86.08;99450.25;4872872;28;24434;-67
2023/12/22 05:45:03;;;;;;;2.00;1.10;;;8.80;99.90;;;8.96;85.50;99446.59;4863602;28;24526;-66
2023/12/22 05:47:25;;;;;;;1.60;0.85;;;8.80;99.90;;;8.95;85.83;99452.72;4873465;28;24419;-66
2023/12/22 05:49:47;;;;;;;3.90;1.00;;;8.80;99.90;;;9.02;85.28;99447.84;4869365;28;24439;-68
2023/12/22 05:52:09;;;;;;;3.70;0.90;;;8.80;99.90;;;9.07;84.63;99451.69;4860450;28;24539;-66
2023/12/22 05:54:31;;;;;;;1.00;0.88;;;8.90;99.90;;;9.12;83.79;99448.69;4864175;28;24447;-68
2023/12/22 05:56:53;;;;;;;0.95;0.90;;;8.90;99.90;;;9.10;82.69;99440.19;4862447;28;24527;-66
2023/12/22 05:59:19;;;;;;;2.38;1.00;;;8.90;99.90;;;9.18;81.20;99445.56;4866366;28;24498;-67
2023/12/22 06:01:41;;;;;;;2.40;0.90;;;9.00;99.90;;;9.21;80.89;99451.38;4852609;28;24463;-67
2023/12/22 06:04:03;;;;;;;1.90;1.20;;;9.00;99.90;;;9.24;80.53;99453.69;4868534;28;24450;-68
2023/12/22 06:06:25;;;;;;;5.53;1.00;;;9.10;99.90;;;9.28;79.34;99455.06;4873585;28;25024;-66
2023/12/22 06:08:47;;;;;;;2.90;1.00;;;9.10;99.90;;;9.30;79.33;99458.41;4862755;28;25039;-69
2023/12/22 06:11:09;;;;;;;3.75;1.20;;;9.10;99.90;;;9.28;79.34;99460.28;4863109;28;24523;-68
2023/12/22 06:13:31;;;;;;;1.45;0.95;;;9.10;99.90;;;9.31;79.91;99473.06;4872842;28;24526;-68
2023/12/22 06:15:53;;;;;;;4.20;1.20;;;9.10;99.90;;;9.35;78.81;99468.41;4862044;28;24530;-67
2023/12/22 06:18:15;;;;;;;3.72;1.40;;;9.10;99.90;;;9.36;79.78;99465.69;4867930;28;25036;-70
2023/12/22 06:20:37;;;;;;;2.93;1.10;;;9.20;99.90;;;9.37;79.14;99459.50;4872362;28;24797;-68
2023/12/22 06:22:58;;;;;;;1.98;1.10;;;9.20;99.90;;;9.38;78.94;99474.19;4872150;28;24523;-66
2023/12/22 06:25:20;;;;;;;3.30;0.90;;;9.20;99.90;;;9.43;78.82;99459.94;4855958;28;24538;-68
2023/12/22 06:27:45;;;;;;;1.00;0.88;;;9.20;99.90;;;9.41;78.49;99465.28;4868744;28;24484;-70
2023/12/22 06:30:08;;;;;;;1.77;0.98;;;9.20;99.90;;;9.48;78.29;99468.16;4858292;28;24444;-67
2023/12/22 06:32:30;;;;;;;2.50;0.90;;;9.30;99.90;;;9.54;77.92;99465.88;4855772;28;25060;-66
2023/12/22 06:34:52;;;;;;;4.87;1.20;;;9.30;99.90;;;9.60;77.02;99459.31;4868614;28;24477;-67
2023/12/22 06:37:14;;;;;;;1.52;0.90;;;9.40;99.90;;;9.59;74.87;99458.50;4871071;28;24790;-68
2023/12/22 06:39:35;;;;;;;3.15;1.42;;;9.50;99.90;;;9.68;74.28;99456.88;4867655;28;24450;-71
2023/12/22 06:41:57;;;;;;;2.20;0.60;;;9.50;99.90;;;9.76;74.06;99490.88;4870164;28;25022;-68
2023/12/22 06:44:19;;;;;;;1.33;0.80;;;9.50;99.90;;;9.78;72.51;99487.19;4862417;28;24538;-66
2023/12/22 06:46:41;;;;;;;2.63;0.82;;;9.60;99.90;;;9.83;72.24;99497.22;4863336;28;24467;-67
2023/12/22 06:49:04;;;;;;;1.25;0.90;;;9.60;99.90;;;9.88;72.32;99493.25;4868545;28;24427;-67
2023/12/22 06:51:34;;;;;;;2.75;0.90;;;9.70;99.90;;;9.86;71.81;99500.38;4865937;28;24442;-68
2023/12/22 06:53:59;;;;;;;2.38;1.10;;;9.70;99.90;;;9.89;72.04;99509.72;4871488;28;24480;-66
2023/12/22 06:56:25;;;;;;;0.52;0.52;;;9.70;99.90;;;9.85;72.12;99505.72;4862932;28;24567;-68
2023/12/22 06:58:49;;;;;;;1.50;0.98;;;9.70;99.90;;;9.90;71.90;99516.59;4870175;28;24510;-68
2023/12/22 07:01:11;;;;;;;4.25;1.00;;;9.70;99.90;;;9.88;71.52;99513.28;4875105;28;24486;-69
2023/12/22 07:03:33;;;;;;;4.72;1.25;;;9.70;99.90;;;9.91;72.05;99521.66;4870600;28;24439;-67
2023/12/22 07:05:54;;;;;;;2.08;0.70;;;9.70;99.90;;;9.88;72.79;99521.13;4863210;28;24428;-68
2023/12/22 07:08:16;;;;;;;2.15;1.05;;;9.70;99.90;;;9.87;72.40;99533.31;4861081;28;24435;-66
2023/12/22 07:10:38;;;;;;;2.92;1.10;;;9.70;99.90;;;9.86;73.19;99529.03;4875411;28;24434;-69
2023/12/22 07:13:01;;;;;;;1.00;0.90;;;9.70;99.90;;;9.88;72.63;99531.53;4861227;28;24444;-67
2023/12/22 07:15:23;;;;;;;1.20;1.00;;;9.70;99.90;;;9.88;72.46;99529.72;4868920;28;24427;-68
2023/12/22 07:17:45;;;;;;;1.80;0.80;;;9.70;99.90;;;9.88;71.58;99526.31;4863943;28;24993;-67
2023/12/22 07:20:09;;;;;;;5.78;0.60;;;9.70;99.90;;;9.94;71.67;99528.41;4874848;28;24473;-68
2023/12/22 07:22:31;;;;;;;3.00;0.90;;;9.70;99.90;;;9.92;72.03;99527.69;4873144;28;24455;-67
2023/12/22 07:24:53;;;;;;;1.60;0.90;;;9.70;99.90;;;9.94;71.65;99531.84;4859138;28;24434;-67
2023/12/22 07:27:15;;;;;;;1.27;0.70;;;9.80;99.90;;;9.97;71.69;99543.75;4873531;28;24504;-67
2023/12/22 07:29:37;;;;;;;1.35;0.65;;;9.80;99.90;;;9.96;71.66;99568.16;4847298;28;24439;-66
2023/12/22 07:31:59;;;;;;;1.73;0.80;;;9.80;99.90;;;9.93;72.24;99565.81;4866269;28;25264;-67
2023/12/22 07:34:22;;;;;;;0.90;0.70;;;9.70;99.90;;;9.93;73.03;99555.38;4866327;28;24428;-67
2023/12/22 07:36:44;;;;;;;2.17;0.90;;;9.70;99.90;;;9.91;73.31;99565.94;4868493;28;24494;-67
2023/12/22 07:39:20;;;;;;;1.30;0.80;;;9.70;99.90;;;9.86;73.99;99575.13;4873040;28;24439;-68
2023/12/22 07:41:42;;;;;;;3.47;1.40;;;9.70;99.90;;;9.78;73.73;99585.34;4868995;28;24459;-68
2023/12/22 07:44:04;;;;;;;1.50;0.90;;;9.60;99.90;;;9.81;73.81;99577.28;4862038;28;24517;-68
2023/12/22 07:46:28;;;;;;;2.10;1.00;;;9.60;99.90;;;9.82;73.47;99579.75;4869335;28;24961;-68
2023/12/22 07:48:50;;;;;;;0.85;0.80;;;9.60;99.90;;;9.82;74.25;99569.34;4867820;28;24466;-68
2023/12/22 07:51:13;;;;;;;2.40;0.60;;;9.60;99.90;;;9.83;73.74;99591.00;4868613;28;24534;-66
2023/12/22 07:53:35;;;;;;;0.93;0.60;;;9.60;99.90;;;9.88;73.74;99607.09;4870696;28;24989;-67
2023/12/22 07:55:59;;;;;;;1.00;0.60;;;9.70;99.90;;;9.90;73.71;99600.75;4857970;28;24451;-67
2023/12/22 07:58:21;;;;;;;1.30;0.70;;;9.70;99.90;;;9.92;73.52;99587.63;4849790;28;24451;-67
2023/12/22 08:00:43;;;;;;;1.30;0.60;;;9.70;99.90;;;9.89;74.59;99587.88;4874583;28;24984;-67
2023/12/22 08:03:05;;;;;;;1.70;0.70;;;9.70;99.90;;;9.90;74.95;99603.38;4866799;28;24875;-68
2023/12/22 08:05:27;;;;;;;1.10;0.57;;;9.70;99.90;;;9.88;74.56;99586.25;4872595;28;24528;-66
2023/12/22 08:07:49;;;;;;;0.60;0.60;;;9.70;99.90;;;9.88;74.79;99588.84;4872056;28;24972;-66
2023/12/22 08:10:11;;;;;;;0.80;0.70;;;9.70;99.90;;;9.91;74.49;99593.78;4854789;28;24521;-66
2023/12/22 08:12:33;;;;;;;0.90;0.60;;;9.70;99.90;;;9.90;75.22;99598.16;4873122;28;24485;-65
2023/12/22 08:14:55;;;;;;;0.70;0.60;;;9.70;99.90;;;9.90;76.22;99592.16;4869798;28;24442;-66
2023/12/22 08:17:17;;;;;;;1.40;0.47;;;9.70;99.90;;;9.88;75.92;99600.06;4871138;28;24534;-67
2023/12/22 08:19:42;;;;;;;0.60;0.40;;;9.70;99.90;;;9.90;77.06;99579.13;4853578;28;25033;-67
2023/12/22 08:22:12;;;;;;;1.30;0.60;;;9.70;99.90;;;9.89;77.92;99574.84;4849385;28;24501;-65
2023/12/22 08:24:35;;;;;;;0.70;0.60;;;9.70;99.90;;;9.89;79.17;99570.47;4869899;28;25063;-67
2023/12/22 08:26:57;;;;;;;0.50;0.50;;;9.70;99.90;;;9.85;80.03;99569.09;4874875;28;24432;-67
2023/12/22 08:29:19;;;;;;;0.90;0.60;;;9.60;99.90;;;9.80;81.13;99566.03;4863988;28;24547;-66
2023/12/22 08:31:43;;;;;;;1.07;0.70;;;9.60;99.90;;;9.75;80.79;99568.19;4862539;28;24509;-66
2023/12/22 08:34:05;;;;;;;1.10;0.60;;;9.50;99.90;;;9.74;81.63;99573.56;4872664;28;24522;-66
2023/12/22 08:36:27;;;;;;;1.70;0.70;;;9.50;99.90;;;9.73;82.19;99571.91;4860145;28;24446;-67
2023/12/22 08:38:49;;;;;;;0.60;0.60;;;9.50;99.90;;;9.70;82.31;99580.81;4864031;28;24602;-67
2023/12/22 08:41:11;;;;;;;1.52;0.90;;;9.50;99.90;;;9.69;82.68;99581.75;4870045;28;25008;-67
2023/12/22 08:43:34;;;;;;;1.10;0.70;;;9.50;99.90;;;9.71;82.84;99579.84;4868191;28;24442;-67
2023/12/22 08:45:56;;;;;;;1.10;0.80;;;9.50;99.90;;;9.66;83.04;99578.59;4869474;28;24466;-68
2023/12/22 08:48:18;;;;;;;2.10;0.70;;;9.50;99.90;;;9.68;83.06;99579.28;4862913;28;25062;-66
2023/12/22 08:50:40;;;;;;;0.85;0.85;;;9.50;99.90;;;9.70;82.47;99579.97;4866627;28;24439;-66
2023/12/22 08:53:04;;;;;;;0.95;0.90;;;9.50;99.90;;;9.72;82.77;99580.66;4860094;28;24454;-67
2023/12/22 08:55:26;;;;;;;2.35;1.10;;;9.50;99.90;;;9.72;82.77;99583.28;4858992;28;24565;-68
2023/12/22 08:57:48;;;;;;;2.30;1.10;;;9.50;99.90;;;9.71;82.78;99577.22;4865974;28;25012;-67
2023/12/22 09:00:21;;;;;;;2.60;1.15;;;9.50;99.90;;;9.76;81.95;99566.44;4870988;28;25028;-68
2023/12/22 09:02:42;;;;;;;2.70;1.20;;;9.60;99.90;;;9.82;82.31;99574.56;4861528;28;24541;-66
2023/12/22 09:05:07;;;;;;;1.17;1.10;;;9.60;99.90;;;9.83;82.21;99572.78;4866000;28;25071;-67
2023/12/22 09:07:29;;;;;;;1.80;1.00;;;9.60;99.90;;;9.83;82.03;99567.56;4865593;28;24428;-67
2023/12/22 09:09:51;;;;;;;3.03;1.23;;;9.60;99.90;;;9.85;82.20;99581.28;4855092;28;24452;-69
2023/12/22 09:12:13;;;;;;;3.65;1.30;;;9.60;99.90;;;9.92;81.99;99574.59;4864398;28;24451;-67
2023/12/22 09:14:35;;;;;;;3.50;1.30;;;9.70;99.90;;;9.95;80.88;99579.53;4866323;28;24470;-66
2023/12/22 09:16:57;;;;;;;3.37;1.60;;;9.70;99.90;;;9.92;81.02;99574.59;4866132;28;24478;-68
2023/12/22 09:19:18;;;;;;;1.73;1.13;;;9.70;99.90;;;9.97;81.17;99588.03;4863308;28;24849;-69
2023/12/22 09:21:41;;;;;;;3.92;1.50;;;9.70;99.90;;;9.97;81.79;99590.66;4872825;28;24458;-67
2023/12/22 09:24:05;;;;;;;5.00;1.42;;;9.70;99.90;;;9.98;81.44;99589.69;4865573;28;24949;-67
2023/12/22 09:26:27;;;;;;;2.78;1.40;;;9.70;99.90;;;9.96;81.25;99579.41;4867862;28;24527;-68
2023/12/22 09:28:51;;;;;;;3.22;1.55;;;9.70;99.90;;;10.02;80.95;99581.50;4863131;28;25007;-69
2023/12/22 09:31:13;;;;;;;6.13;1.55;;;9.80;99.90;;;10.07;80.14;99578.50;4859299;28;24514;-66
2023/12/22 09:33:35;;;;;;;2.70;1.30;;;9.80;99.90;;;10.10;80.33;99583.44;4873372;28;24440;-68
2023/12/22 09:35:57;;;;;;;3.10;1.35;;;9.90;99.90;;;10.13;79.80;99583.22;4869858;28;24505;-68
2023/12/22 09:38:22;;;;;;;6.10;1.90;;;9.90;99.90;;;10.14;80.56;99588.28;4865704;28;24470;-67
2023/12/22 09:40:44;;;;;;;7.07;2.00;;;9.90;99.90;;;10.20;80.28;99588.72;4860508;28;24452;-67
2023/12/22 09:43:09;;;;;;;7.15;1.90;;;10.00;99.90;;;10.28;79.56;99583.66;4872213;28;24849;-67
2023/12/22 09:45:33;;;;;;;5.35;1.85;;;10.00;99.90;;;10.35;79.41;99588.19;4859526;28;24445;-66
2023/12/22 09:47:59;;;;;;;3.40;1.10;;;10.10;99.90;;;10.40;78.74;99583.41;4861728;28;24498;-67
2023/12/22 09:50:22;;;;;;;6.57;1.88;;;10.10;99.90;;;10.48;79.11;99577.50;4844804;28;24509;-66
2023/12/22 09:52:45;;;;;;;7.50;2.00;;;10.20;99.90;;;10.50;78.81;99573.00;4853116;28;24444;-66
2023/12/22 09:55:09;;;;;;;5.13;1.63;;;10.20;99.90;;;10.49;78.06;99569.56;4864048;28;24451;-66
2023/12/22 09:57:33;;;;;;;5.63;1.70;;;10.20;99.90;;;10.52;78.04;99574.50;4872686;28;24530;-67
2023/12/22 09:59:57;;;;;;;2.50;1.20;;;10.30;99.90;;;10.48;78.50;99575.72;4844976;28;24443;-67
2023/12/22 10:02:19;;;;;;;5.40;1.90;;;10.20;99.90;;;10.52;78.96;99571.09;4864486;28;24625;-67
2023/12/22 10:04:41;;;;;;;8.20;1.88;;;10.30;99.90;;;10.56;77.69;99572.47;4871515;28;24443;-66
2023/12/22 10:07:05;;;;;;;4.78;1.80;;;10.30;99.90;;;10.57;77.87;99572.31;4872058;28;24549;-67
2023/12/22 10:09:27;;;;;;;7.15;1.90;;;10.30;99.90;;;10.65;77.54;99564.63;4871404;28;24435;-68
2023/12/22 10:11:53;;;;;;;5.75;1.67;;;10.40;99.90;;;10.62;78.01;99569.31;4870233;28;24530;-67
2023/12/22 10:14:22;;;;;;;3.80;1.60;;;10.30;99.90;;;10.62;78.73;99566.69;4852512;28;24458;-67